createdAt,value
2019-05-04T00:00:04.754Z,8
2019-05-04T00:05:02.025Z,7.9
2019-05-04T00:10:01.282Z,8
2019-05-04T00:15:02.357Z,7.9
2019-05-04T00:20:01.418Z,7.9
2019-05-04T00:25:04.695Z,7.9
2019-05-04T00:30:05.403Z,7.9
2019-05-04T00:35:04.571Z,7.9
2019-05-04T00:40:05.254Z,7.8
2019-05-04T00:45:02.361Z,7.8
2019-05-04T00:50:02.272Z,7.8
2019-05-04T00:55:02.431Z,7.8
2019-05-04T01:00:01.712Z,7.8
2019-05-04T01:05:04.727Z,7.8
2019-05-04T01:10:01.808Z,7.8
2019-05-04T01:15:04.635Z,7.7
2019-05-04T01:20:01.719Z,7.6
2019-05-04T01:25:02.675Z,7.6
2019-05-04T01:30:01.692Z,7.5
2019-05-04T01:35:04.979Z,7.5
2019-05-04T01:40:01.939Z,7.4
2019-05-04T01:45:02.806Z,7.4
2019-05-04T01:50:01.602Z,7.3
2019-05-04T01:55:04.643Z,7.3
2019-05-04T02:00:01.704Z,7.2
2019-05-04T02:05:04.521Z,7.1
2019-05-04T02:10:01.853Z,7
2019-05-04T02:15:05.089Z,7
2019-05-04T02:20:02.145Z,6.9
2019-05-04T02:25:01.297Z,6.9
2019-05-04T02:30:02.131Z,6.7
2019-05-04T02:35:05.856Z,6.7
2019-05-04T02:40:01.932Z,6.7
2019-05-04T02:45:05.622Z,6.6
2019-05-04T02:50:01.696Z,6.6
2019-05-04T02:55:02.791Z,6.6
2019-05-04T03:00:01.667Z,6.6
2019-05-04T03:05:04.949Z,6.5
2019-05-04T03:10:01.872Z,6.5
2019-05-04T03:15:05.211Z,6.5
2019-05-04T03:20:02.198Z,6.5
2019-05-04T03:25:01.366Z,6.5
2019-05-04T03:30:02.089Z,6.4
2019-05-04T03:35:18.033Z,6.4
2019-05-04T03:40:05.341Z,6.4
2019-05-04T03:45:01.913Z,6.3
2019-05-04T03:50:07.018Z,6.3
2019-05-04T03:55:01.959Z,6.2
2019-05-04T04:00:05.491Z,6.1
2019-05-04T04:05:02.203Z,6.1
2019-05-04T04:10:01.539Z,6.1
2019-05-04T04:15:05.131Z,6.1
2019-05-04T04:20:01.524Z,6.1
2019-05-04T04:25:05.004Z,6.1
2019-05-04T04:30:01.993Z,6.2
2019-05-04T04:35:15.454Z,6.1
2019-05-04T04:40:01.692Z,6.1
2019-05-04T04:45:02.871Z,6.1
2019-05-04T04:50:01.806Z,6.1
2019-05-04T04:55:16.423Z,6.1
2019-05-04T05:00:06.225Z,6.2
2019-05-04T05:05:05.420Z,6.2
2019-05-04T05:10:02.132Z,6.2
2019-05-04T05:15:01.269Z,6.2
2019-05-04T05:20:02.317Z,6.2
2019-05-04T05:25:01.683Z,6.2
2019-05-04T05:30:04.365Z,6.2
2019-05-04T05:35:01.622Z,6.3
2019-05-04T05:40:02.491Z,6.3
2019-05-04T05:45:01.649Z,6.3
2019-05-04T05:50:04.519Z,6.4
2019-05-04T05:55:01.817Z,6.4
2019-05-04T06:00:08.370Z,6.4
2019-05-04T06:05:02.069Z,6.4
2019-05-04T06:10:19.365Z,6.5
2019-05-04T06:15:04.189Z,6.5
2019-05-04T06:20:01.497Z,6.6
2019-05-04T06:25:04.360Z,6.7
2019-05-04T06:30:01.666Z,6.9
2019-05-04T06:35:04.536Z,6.9
2019-05-04T06:40:06.142Z,6.9
2019-05-04T06:45:11.450Z,6.9
2019-05-04T06:50:01.630Z,7
2019-05-04T06:55:10.478Z,6.9
2019-05-04T07:00:02.060Z,6.8
2019-05-04T07:05:04.307Z,6.8
2019-05-04T07:10:04.994Z,6.7
2019-05-04T07:15:01.660Z,6.7
2019-05-04T07:20:04.428Z,6.8
2019-05-04T07:25:01.715Z,6.9
2019-05-04T07:30:04.451Z,7
2019-05-04T07:35:01.553Z,7.1
2019-05-04T07:40:07.196Z,7.1
2019-05-04T07:45:02.021Z,7.1
2019-05-04T07:50:04.927Z,7.3
2019-05-04T07:55:02.131Z,7.3
2019-05-04T08:00:06.085Z,7.4
2019-05-04T08:05:02.336Z,7.4
2019-05-04T08:10:01.679Z,7.4
2019-05-04T08:15:12.805Z,7.4
2019-05-04T08:20:01.877Z,7.5
2019-05-04T08:25:06.650Z,7.5
2019-05-04T08:30:05.587Z,7.5
2019-05-04T08:35:04.733Z,7.5
2019-05-04T08:40:01.758Z,7.4
2019-05-04T08:45:02.868Z,7.5
2019-05-04T08:50:04.672Z,7.6
2019-05-04T08:55:04.963Z,7.6
2019-05-04T09:00:01.853Z,7.8
2019-05-04T09:05:05.014Z,8
2019-05-04T09:10:05.731Z,8
2019-05-04T09:15:04.955Z,8
2019-05-04T09:20:02.147Z,8.1
2019-05-04T09:25:01.705Z,8
2019-05-04T09:30:04.438Z,8.1
2019-05-04T09:35:06.911Z,8.3
2019-05-04T09:40:08.640Z,8.3
2019-05-04T09:45:02.215Z,8.2
2019-05-04T09:50:05.287Z,8.3
2019-05-04T09:55:04.604Z,8.4
2019-05-04T10:00:07.515Z,8.6
2019-05-04T10:05:02.479Z,8.6
2019-05-04T10:10:01.923Z,8.5
2019-05-04T10:15:08.329Z,8.7
2019-05-04T10:20:11.931Z,8.6
2019-05-04T10:25:04.703Z,8.6
2019-05-04T10:30:01.789Z,8.7
2019-05-04T10:35:04.827Z,8.9
2019-05-04T10:40:05.173Z,9.1
2019-05-04T10:45:01.301Z,9
2019-05-04T10:50:02.168Z,9.1
2019-05-04T10:55:01.566Z,9.1
2019-05-04T11:00:04.232Z,9.1
2019-05-04T11:05:01.811Z,9.1
2019-05-04T11:10:04.955Z,9.2
2019-05-04T11:15:04.239Z,9.3
2019-05-04T11:20:01.515Z,9.2
2019-05-04T11:25:04.122Z,9.2
2019-05-04T11:30:01.795Z,9.3
2019-05-04T11:35:02.613Z,9.3
2019-05-04T11:40:04.953Z,9.4
2019-05-04T11:45:04.293Z,9.4
2019-05-04T11:50:04.158Z,9.6
2019-05-04T11:55:01.619Z,9.7
2019-05-04T12:00:02.168Z,9.7
2019-05-04T12:05:05.107Z,9.8
2019-05-04T12:10:12.390Z,9.9
2019-05-04T12:15:01.533Z,9.9
2019-05-04T12:20:04.602Z,9.9
2019-05-04T12:25:05.033Z,9.5
2019-05-04T12:30:04.447Z,9.5
2019-05-04T12:35:01.894Z,9.5
2019-05-04T12:40:01.307Z,9.6
2019-05-04T12:45:02.326Z,9.8
2019-05-04T12:50:01.853Z,10.2
2019-05-04T12:55:04.761Z,10.4
2019-05-04T13:00:01.957Z,10.4
2019-05-04T13:05:04.454Z,10.4
2019-05-04T13:10:04.348Z,10.3
2019-05-04T13:15:01.645Z,10.5
2019-05-04T13:20:04.920Z,10.6
2019-05-04T13:25:04.647Z,10.9
2019-05-04T13:30:01.568Z,10.8
2019-05-04T13:35:02.532Z,10.6
2019-05-04T13:40:01.900Z,10.7
2019-05-04T13:45:04.555Z,12.7
2019-05-04T13:50:02.328Z,12.7
2019-05-04T13:55:01.790Z,14.3
2019-05-04T14:00:03.239Z,15.3
2019-05-04T14:05:01.851Z,15.3
2019-05-04T14:10:04.930Z,14.4
2019-05-04T14:15:01.975Z,14.1
2019-05-04T14:20:01.601Z,14.9
2019-05-04T14:25:02.232Z,13.9
2019-05-04T14:30:01.763Z,12.6
2019-05-04T14:35:02.540Z,12.8
2019-05-04T14:40:06.167Z,13.5
2019-05-04T14:45:05.084Z,13.8
2019-05-04T14:50:06.283Z,13.9
2019-05-04T14:55:01.473Z,13.9
2019-05-04T15:00:02.373Z,13.5
2019-05-04T15:05:01.397Z,13.6
2019-05-04T15:10:02.657Z,13.8
2019-05-04T15:15:10.776Z,13.5
2019-05-04T15:20:06.183Z,12.7
2019-05-04T15:25:05.059Z,12.5
2019-05-04T15:30:01.616Z,12.5
2019-05-04T15:35:02.405Z,12
2019-05-04T15:40:03.782Z,12.3
2019-05-04T15:45:02.658Z,13.1
2019-05-04T15:50:01.891Z,13.9
2019-05-04T15:55:04.753Z,14
2019-05-04T16:00:01.846Z,14
2019-05-04T16:05:15.631Z,14.3
2019-05-04T16:10:01.911Z,14.3
2019-05-04T16:15:08.414Z,13.2
2019-05-04T16:20:01.901Z,13.2
2019-05-04T16:25:05.217Z,12.8
2019-05-04T16:30:02.015Z,12.7
2019-05-04T16:35:04.382Z,12.6
2019-05-04T16:40:01.860Z,12.1
2019-05-04T16:45:01.440Z,11
2019-05-04T16:50:02.224Z,10.2
2019-05-04T16:55:09.157Z,8.8
2019-05-04T17:00:03.868Z,8.8
2019-05-04T17:05:01.796Z,8.3
2019-05-04T17:10:03.042Z,8.1
2019-05-04T17:15:01.933Z,8.1
2019-05-04T17:20:08.343Z,8
2019-05-04T17:25:01.826Z,8.1
2019-05-04T17:30:03.924Z,8.2
2019-05-04T17:35:01.638Z,8.4
2019-05-04T17:40:02.362Z,8.5
2019-05-04T17:45:01.692Z,8.6
2019-05-04T17:50:04.358Z,8.5
2019-05-04T17:55:01.778Z,8.5
2019-05-04T18:00:04.836Z,8.4
2019-05-04T18:05:01.886Z,8.4
2019-05-04T18:10:01.358Z,8.4
2019-05-04T18:15:04.294Z,8.4
2019-05-04T18:20:01.517Z,8.4
2019-05-04T18:25:02.522Z,8.3
2019-05-04T18:30:02.125Z,8.2
2019-05-04T18:35:01.387Z,8.1
2019-05-04T18:40:02.391Z,8
2019-05-04T18:45:01.679Z,7.9
2019-05-04T18:50:04.416Z,7.8
2019-05-04T18:55:01.638Z,7.7
2019-05-04T19:00:04.141Z,7.7
2019-05-04T19:05:01.909Z,7.5
2019-05-04T19:10:04.504Z,7.5
2019-05-04T19:15:01.964Z,7.4
2019-05-04T19:20:03.251Z,7.3
2019-05-04T19:25:01.949Z,7.3
2019-05-04T19:30:06.055Z,7.2
2019-05-04T19:35:01.769Z,7.2
2019-05-04T19:40:04.506Z,7.1
2019-05-04T19:45:04.944Z,6.9
2019-05-04T19:50:05.283Z,6.9
2019-05-04T19:55:02.433Z,6.8
2019-05-04T20:00:01.661Z,6.8
2019-05-04T20:05:05.125Z,6.6
2019-05-04T20:10:01.817Z,6.6
2019-05-04T20:15:23.695Z,6.5
2019-05-04T20:20:02.217Z,6.5
2019-05-04T20:25:01.670Z,6.4
2019-05-04T20:30:02.420Z,6.4
2019-05-04T20:35:01.688Z,6.4
2019-05-04T20:40:07.709Z,6.4
2019-05-04T20:45:01.703Z,6.4
2019-05-04T20:50:03.171Z,6.3
2019-05-04T20:55:05.376Z,6.3
2019-05-04T21:00:04.581Z,6.2
2019-05-04T21:05:01.895Z,6.2
2019-05-04T21:10:04.906Z,6.2
2019-05-04T21:15:02.173Z,6.2
2019-05-04T21:20:01.345Z,6.1
2019-05-04T21:25:02.532Z,6
2019-05-04T21:30:01.707Z,5.9
2019-05-04T21:35:05.265Z,5.9
2019-05-04T21:40:02.007Z,5.8
2019-05-04T21:45:02.912Z,5.8
2019-05-04T21:50:01.924Z,5.8
2019-05-04T21:55:04.698Z,5.8
2019-05-04T22:00:03.838Z,5.7
2019-05-04T22:05:15.606Z,5.7
2019-05-04T22:10:01.910Z,5.7
2019-05-04T22:15:05.695Z,5.6
2019-05-04T22:20:01.631Z,5.6
2019-05-04T22:25:02.670Z,5.5
2019-05-04T22:30:02.197Z,5.5
2019-05-04T22:35:01.517Z,5.4
2019-05-04T22:40:02.445Z,5.4
2019-05-04T22:45:01.821Z,5.4
2019-05-04T22:50:04.527Z,5.4
2019-05-04T22:55:01.877Z,5.4
2019-05-04T23:00:01.302Z,5.4
2019-05-04T23:05:02.253Z,5.3
2019-05-04T23:10:01.537Z,5.4
2019-05-04T23:15:02.267Z,5.3
2019-05-04T23:20:01.411Z,5.2
2019-05-04T23:25:02.300Z,5.2
2019-05-04T23:30:01.805Z,5.2
2019-05-04T23:35:04.642Z,5.1
2019-05-04T23:40:01.839Z,5.1
2019-05-04T23:45:10.836Z,5
2019-05-04T23:50:02.062Z,5
2019-05-04T23:55:04.433Z,4.9
